WIF170 ENOV-ENSG
Flight info
| Callsign | WIF170 |
|---|---|
| Flight time | 0h 20m |
| Altitude | 15000 |
| Route | EVNAN |
| Aircraft | DH8B/M-SDFGR/S |
Departure
| Time | 2026-04-22 16:06 |
|---|---|
| Airport | Ørsta-Volda Airport, Hovden (ENOV) |
Arrival
| Time | 2026-04-22 16:26 |
|---|---|
| Airport | Sogndal Airport, Haukåsen (ENSG) |
| Time | Latitude | Longitude | Altitude | Speed | Heading |
|---|---|---|---|---|---|
| 2026-04-22 15:57 | 62.18045 | 6.07983 | 241 ft | 0 kts | 58° |
| 2026-04-22 16:04 | 62.18047 | 6.07987 | 241 ft | 3 kts | 58° |
| 2026-04-22 16:05 | 62.18073 | 6.08010 | 239 ft | 10 kts | 346° |
| 2026-04-22 16:05 | 62.18124 | 6.07856 | 238 ft | 9 kts | 242° |
| 2026-04-22 16:05 | 62.18008 | 6.07422 | 241 ft | 87 kts | 240° |
| 2026-04-22 16:05 | 62.17574 | 6.05816 | 419 ft | 146 kts | 239° |
| 2026-04-22 16:06 | 62.16974 | 6.03877 | 1018 ft | 167 kts | 237° |
| 2026-04-22 16:06 | 62.16492 | 6.01555 | 1671 ft | 177 kts | 264° |
| 2026-04-22 16:06 | 62.16748 | 5.98955 | 2335 ft | 187 kts | 300° |
| 2026-04-22 16:06 | 62.17706 | 5.97083 | 3166 ft | 190 kts | 332° |
| 2026-04-22 16:07 | 62.18799 | 5.95538 | 3951 ft | 189 kts | 315° |
| 2026-04-22 16:07 | 62.19559 | 5.93254 | 4741 ft | 189 kts | 303° |
| 2026-04-22 16:07 | 62.20291 | 5.90902 | 5508 ft | 190 kts | 305° |
| 2026-04-22 16:07 | 62.20610 | 5.88175 | 6247 ft | 199 kts | 266° |
| 2026-04-22 16:08 | 62.20067 | 5.85408 | 7016 ft | 209 kts | 239° |
| 2026-04-22 16:08 | 62.18853 | 5.83559 | 7728 ft | 225 kts | 201° |
| 2026-04-22 16:08 | 62.17284 | 5.83574 | 8457 ft | 233 kts | 160° |
| 2026-04-22 16:08 | 62.15908 | 5.85403 | 9223 ft | 234 kts | 146° |
| 2026-04-22 16:09 | 62.14425 | 5.86744 | 10004 ft | 232 kts | 166° |
| 2026-04-22 16:09 | 62.12855 | 5.87730 | 10752 ft | 237 kts | 161° |
| 2026-04-22 16:09 | 62.11346 | 5.89152 | 11471 ft | 238 kts | 153° |
| 2026-04-22 16:09 | 62.09862 | 5.90778 | 12195 ft | 241 kts | 152° |
| 2026-04-22 16:10 | 62.08304 | 5.92396 | 12732 ft | 254 kts | 155° |
| 2026-04-22 16:10 | 62.06665 | 5.93940 | 13295 ft | 261 kts | 156° |
| 2026-04-22 16:10 | 62.05558 | 5.94988 | 13675 ft | 264 kts | 155° |
| 2026-04-22 16:10 | 62.03332 | 5.97196 | 14428 ft | 269 kts | 155° |
| 2026-04-22 16:11 | 62.01627 | 5.98877 | 14952 ft | 271 kts | 155° |
| 2026-04-22 16:11 | 61.99897 | 6.00574 | 15407 ft | 278 kts | 151° |
| 2026-04-22 16:11 | 61.98388 | 6.03281 | 15481 ft | 293 kts | 129° |
| 2026-04-22 16:11 | 61.97086 | 6.06733 | 15488 ft | 305 kts | 128° |
| 2026-04-22 16:12 | 61.95604 | 6.10055 | 15492 ft | 315 kts | 137° |
| 2026-04-22 16:12 | 61.93904 | 6.13054 | 15492 ft | 320 kts | 140° |
| 2026-04-22 16:12 | 61.92184 | 6.16108 | 15492 ft | 322 kts | 137° |
| 2026-04-22 16:12 | 61.90560 | 6.19300 | 15475 ft | 315 kts | 135° |
| 2026-04-22 16:13 | 61.89003 | 6.22532 | 15466 ft | 311 kts | 135° |
| 2026-04-22 16:13 | 61.87445 | 6.25666 | 15471 ft | 307 kts | 136° |
| 2026-04-22 16:13 | 61.85886 | 6.28734 | 15460 ft | 304 kts | 136° |
| 2026-04-22 16:13 | 61.84333 | 6.31767 | 15459 ft | 303 kts | 136° |
| 2026-04-22 16:14 | 61.82776 | 6.34798 | 15459 ft | 304 kts | 136° |
| 2026-04-22 16:14 | 61.81273 | 6.37738 | 15181 ft | 306 kts | 137° |
| 2026-04-22 16:14 | 61.79742 | 6.40783 | 15444 ft | 305 kts | 136° |
| 2026-04-22 16:14 | 61.78183 | 6.43847 | 15451 ft | 306 kts | 136° |
| 2026-04-22 16:15 | 61.76614 | 6.46900 | 15443 ft | 307 kts | 136° |
| 2026-04-22 16:15 | 61.75045 | 6.49959 | 15441 ft | 307 kts | 135° |
| 2026-04-22 16:15 | 61.73480 | 6.53033 | 15438 ft | 307 kts | 135° |
| 2026-04-22 16:15 | 61.71913 | 6.56108 | 15431 ft | 308 kts | 136° |
| 2026-04-22 16:16 | 61.70337 | 6.59173 | 15413 ft | 308 kts | 136° |
| 2026-04-22 16:16 | 61.68761 | 6.62231 | 15406 ft | 308 kts | 136° |
| 2026-04-22 16:16 | 61.67183 | 6.65302 | 15405 ft | 308 kts | 136° |
| 2026-04-22 16:16 | 61.65615 | 6.68355 | 15407 ft | 307 kts | 136° |
| 2026-04-22 16:17 | 61.64045 | 6.71394 | 15357 ft | 308 kts | 136° |
| 2026-04-22 16:17 | 61.62473 | 6.74426 | 14907 ft | 300 kts | 136° |
| 2026-04-22 16:17 | 61.60962 | 6.77353 | 14430 ft | 290 kts | 136° |
| 2026-04-22 16:17 | 61.59521 | 6.80148 | 13923 ft | 283 kts | 136° |
| 2026-04-22 16:18 | 61.58074 | 6.82930 | 13364 ft | 279 kts | 136° |
| 2026-04-22 16:18 | 61.56655 | 6.85673 | 12824 ft | 275 kts | 133° |
| 2026-04-22 16:18 | 61.55428 | 6.88707 | 12301 ft | 271 kts | 125° |
| 2026-04-22 16:18 | 61.54300 | 6.91845 | 12015 ft | 271 kts | 126° |
| 2026-04-22 16:19 | 61.53101 | 6.94926 | 11746 ft | 274 kts | 128° |
| 2026-04-22 16:19 | 61.51834 | 6.97928 | 11484 ft | 275 kts | 130° |
| 2026-04-22 16:19 | 61.50989 | 6.99905 | 11311 ft | 275 kts | 129° |
| 2026-04-22 16:19 | 61.49729 | 7.02922 | 11053 ft | 275 kts | 128° |
| 2026-04-22 16:20 | 61.48478 | 7.05966 | 10566 ft | 275 kts | 128° |
| 2026-04-22 16:20 | 61.47238 | 7.08984 | 10087 ft | 273 kts | 128° |
| 2026-04-22 16:20 | 61.46007 | 7.11961 | 9558 ft | 269 kts | 128° |
| 2026-04-22 16:20 | 61.44768 | 7.14970 | 9037 ft | 276 kts | 128° |
| 2026-04-22 16:21 | 61.43509 | 7.18021 | 8568 ft | 274 kts | 129° |
| 2026-04-22 16:21 | 61.42275 | 7.20995 | 7955 ft | 266 kts | 129° |
| 2026-04-22 16:21 | 61.41128 | 7.23734 | 7232 ft | 238 kts | 129° |
| 2026-04-22 16:21 | 61.40081 | 7.26234 | 6831 ft | 226 kts | 129° |
| 2026-04-22 16:22 | 61.37647 | 7.29954 | 6858 ft | 223 kts | 162° |
| 2026-04-22 16:22 | 61.36155 | 7.30853 | 6857 ft | 232 kts | 165° |
| 2026-04-22 16:22 | 61.34539 | 7.31746 | 6810 ft | 250 kts | 165° |
| 2026-04-22 16:23 | 61.31042 | 7.33659 | 6372 ft | 267 kts | 165° |
| 2026-04-22 16:23 | 61.29218 | 7.34646 | 6176 ft | 275 kts | 166° |
| 2026-04-22 16:23 | 61.27396 | 7.35651 | 6099 ft | 263 kts | 165° |
| 2026-04-22 16:24 | 61.25663 | 7.36612 | 6055 ft | 254 kts | 165° |
| 2026-04-22 16:24 | 61.22374 | 7.37985 | 5968 ft | 222 kts | 186° |
| 2026-04-22 16:24 | 61.21037 | 7.36733 | 5908 ft | 206 kts | 224° |
| 2026-04-22 16:25 | 61.20180 | 7.34509 | 5951 ft | 192 kts | 244° |
| 2026-04-22 16:25 | 61.18572 | 7.26939 | 4422 ft | 192 kts | 251° |
| 2026-04-22 16:25 | 61.17219 | 7.19697 | 2772 ft | 150 kts | 252° |
| 2026-04-22 16:26 | 61.16786 | 7.17797 | 2328 ft | 143 kts | 240° |
| 2026-04-22 16:26 | 61.16289 | 7.16147 | 2017 ft | 126 kts | 243° |
| 2026-04-22 16:26 | 61.15847 | 7.14569 | 1687 ft | 124 kts | 240° |
| 2026-04-22 16:26 | 61.15512 | 7.13387 | 1642 ft | 36 kts | 239° |
| 2026-04-22 16:27 | 61.15457 | 7.13168 | 1642 ft | 5 kts | 195° |
| 2026-04-22 16:27 | 61.15475 | 7.13260 | 1642 ft | 14 kts | 57° |
| 2026-04-22 16:27 | 61.15538 | 7.13480 | 1642 ft | 21 kts | 60° |
| 2026-04-22 16:27 | 61.15618 | 7.13685 | 1642 ft | 15 kts | 347° |
| 2026-04-22 16:28 | 61.15691 | 7.13705 | 1642 ft | 12 kts | 58° |
| 2026-04-22 16:28 | 61.15721 | 7.13796 | 1642 ft | 0 kts | 60° |